University, MS

5:31 PM CST on March 02, 2015 (GMT -0600)
Tunica | Change Station
CLOSE
Current Station
Airport
Location: Tunica,
Elevation: 194 ft
Nearby Weather Stations
Active Advisory: Winter Storm Watch Active Notice: Public Information Statement

Elev 194 ft 34.68 °N, 90.35 °W | Updated 16 minutes ago

Overcast
Overcast
39 °F
Feels Like 32 °F
N
10
Wind Variable Wind from NNE

Today
High -- | Low -- °F
--% Chance of Precip.
Yesterday
High -- | Low -- °F
Precip. -- in
6:26 AM 5:54 PM
Waxing Gibbous, 93% visible
Pressure 30.32 in
Visibility 7.0 miles
Clouds Mostly Cloudy 900 ft
Overcast 1400 ft
Windchill 32 °F
Dew Point 37 °F
Humidity 93%
Rainfall 0.01 in
Snow Depth Not available.
UV 0 out of 12
Pollen 2.10 out of 12
Air Quality Not available.
Flu Activity Not available.
METAR KUTA 022315Z AUTO 02009KT 7SM BKN009 OVC014 04/03 A3032 RMK AO2

More Conditions Fewer Conditions

Pressure 30.32 in
Visibility 7.0 miles
Clouds Mostly Cloudy 900 ft
Overcast 1400 ft
Windchill 32 °F
Dew Point 37 °F
Humidity 93%
Rainfall 0.01 in
Snow Depth Not available.
UV 0 out of 12
Pollen 2.10 out of 12
Air Quality Not available.
Flu Activity Not available.
METAR KUTA 022315Z AUTO 02009KT 7SM BKN009 OVC014 04/03 A3032 RMK AO2

More Conditions Fewer Conditions

10-Day Weather Forecast

Almanac

Astronomy

Mar. 02, 2015 Rise Set
Actual Time
Civil Twilight
Nautical Twilight
Astronomical Twilight
Moon
Length of Visible Light
Length of Day
Tomorrow will be .
, % of the Moon is Illuminated

Today's Extremes

State Highs State Lows

Community

WunderPhotos

Upload Photos

1,801,998 photos uploaded!

WunderBlogs® & News

Nearby

Air Quality

  Air Quality AQ Index Pollutant
Not available.

Snow Depth

Station Depth Elevation

Earthquake Activity

City Distance Mag. Time & Date
Minimum magnitude displayed is 2.5.

Coastal Water Temperatures

Place Temperature

Nearby Weather Stations

Winter Storm Watch
Statement as of 1:50 PM CST on March 02, 2015

... Winter Storm Watch in effect from Wednesday evening through
late Wednesday night...

The National Weather Service in Memphis has issued a Winter Storm
Watch... which is in effect from Wednesday evening through late
Wednesday night.

* Snow/sleet/ice accumulations... significant accumulations of
sleet and some ice are likely.

* Timing... 6 PM CST Wednesday to 6 am CST Thursday.

* Impacts... travel will likely become hazardous.

Precautionary/preparedness actions...

A Winter Storm Watch means there is a potential for significant
snow... sleet... or ice accumulations that may impact travel.
Continue to monitor the latest forecasts.